createdAt,value
2017-12-02T13:34:53.696Z,17.5
2017-12-02T13:35:57.004Z,17.4
2017-12-02T13:37:00.826Z,17.5
2017-12-02T13:38:08.423Z,17.7
2017-12-02T13:39:11.428Z,17.7
2017-12-02T13:40:17.299Z,17.7
2017-12-02T13:41:21.332Z,17.6
2017-12-02T13:42:25.278Z,17.7
2017-12-02T13:43:30.082Z,17.7
2017-12-02T13:44:32.898Z,17.6
2017-12-02T13:45:37.536Z,17.3
2017-12-02T13:46:43.402Z,17.1
2017-12-02T13:47:49.155Z,17
2017-12-02T13:48:52.585Z,16.9
2017-12-02T13:49:55.187Z,16.7
2017-12-02T13:50:58.604Z,16.6
2017-12-02T13:52:01.912Z,16.5
2017-12-02T13:53:05.767Z,16.5
2017-12-02T13:54:09.839Z,16.4
2017-12-02T13:55:16.649Z,16.3
2017-12-02T13:56:20.264Z,16.3
2017-12-02T13:57:23.103Z,16.1
2017-12-02T13:58:27.053Z,16.3
2017-12-02T13:59:31.219Z,16.2
2017-12-02T14:00:39.381Z,16.2
2017-12-02T14:01:42.376Z,16.2
2017-12-02T14:02:45.245Z,16.2
2017-12-02T14:03:48.566Z,16.2
2017-12-02T14:04:51.227Z,16.1
2017-12-02T14:05:54.942Z,16.1
2017-12-02T14:07:01.632Z,16.1
2017-12-02T14:08:16.907Z,16.1
2017-12-02T14:09:20.759Z,16.1
2017-12-02T14:10:24.047Z,16.1
2017-12-02T14:11:27.228Z,16.3
2017-12-02T14:12:30.302Z,16.3
2017-12-02T14:13:33.937Z,16.5
2017-12-02T14:14:36.578Z,16.9
2017-12-02T14:15:41.436Z,17.1
2017-12-02T14:16:45.838Z,17.2
2017-12-02T14:17:48.500Z,17.4
2017-12-02T14:18:51.073Z,17.5
2017-12-02T14:19:53.520Z,17.7
2017-12-02T14:20:58.094Z,18
2017-12-02T14:22:01.155Z,18.3
2017-12-02T14:23:06.492Z,18.5
2017-12-02T14:24:09.603Z,18.8
2017-12-02T14:25:13.843Z,19
2017-12-02T14:26:17.279Z,19.3
2017-12-02T14:27:20.075Z,19.4
2017-12-02T14:28:23.090Z,19.6
2017-12-02T14:29:25.952Z,19.6
2017-12-02T14:30:32.470Z,19.6
2017-12-02T14:31:36.870Z,19.6
2017-12-02T14:32:41.535Z,19.5
2017-12-02T14:33:44.493Z,19.7
2017-12-02T14:34:47.969Z,19.9
2017-12-02T14:35:52.345Z,20.1
2017-12-02T14:36:56.031Z,20.1
2017-12-02T14:38:01.886Z,20.2
2017-12-02T14:39:09.177Z,20.4
2017-12-02T14:41:23.233Z,20.5
2017-12-02T14:42:26.326Z,20.4
2017-12-02T14:43:30.622Z,20.4
2017-12-02T14:44:35.074Z,20.4
2017-12-02T14:45:42.857Z,20.3
2017-12-02T14:46:47.682Z,20.2
2017-12-02T14:47:50.362Z,20.1
2017-12-02T14:48:53.513Z,20.1
2017-12-02T14:49:56.359Z,20
2017-12-02T14:50:59.172Z,19.9
2017-12-02T14:52:02.725Z,19.9
2017-12-02T14:53:12.085Z,19.7
2017-12-02T14:54:17.511Z,19.7
2017-12-02T14:55:21.603Z,19.7
2017-12-02T14:56:25.785Z,19.5
2017-12-02T14:57:30.256Z,19.6
2017-12-02T14:58:33.121Z,19.3
2017-12-02T14:59:37.109Z,19.3
2017-12-02T15:00:42.484Z,19.2
2017-12-02T15:01:46.837Z,19.2
2017-12-02T15:02:49.526Z,19.2
2017-12-02T15:03:52.278Z,19.1
2017-12-02T15:04:54.902Z,19
2017-12-02T15:05:57.731Z,18.9
2017-12-02T15:07:00.473Z,19
2017-12-02T15:08:04.743Z,18.8
2017-12-02T15:09:08.487Z,18.7
2017-12-02T15:10:13.235Z,18.6
2017-12-02T15:11:20.927Z,18.6
2017-12-02T15:12:23.735Z,18.6
2017-12-02T15:13:26.479Z,18.5
2017-12-02T15:14:31.775Z,18.3
2017-12-02T15:15:36.353Z,18.3
2017-12-02T15:16:41.300Z,18.3
2017-12-02T15:17:44.555Z,18.2
2017-12-02T15:18:47.536Z,18.2
2017-12-02T15:19:50.224Z,18.1
2017-12-02T15:20:54.417Z,18.1
2017-12-02T15:22:00.390Z,18.1
2017-12-02T15:23:03.980Z,18.1
2017-12-02T15:24:10.694Z,18
2017-12-02T15:25:15.061Z,18
2017-12-02T15:26:23.829Z,17.9
2017-12-02T15:27:33.200Z,17.9
2017-12-02T15:32:05.733Z,17.6
2017-12-02T15:33:09.276Z,17.6
2017-12-02T15:34:14.669Z,17.6
2017-12-02T15:35:19.464Z,17.5
2017-12-02T15:36:23.235Z,17.4
2017-12-02T15:37:26.805Z,17.4
2017-12-02T15:38:29.779Z,17.3
2017-12-02T15:39:32.644Z,17.3
2017-12-02T15:40:36.512Z,17.2
2017-12-02T15:41:41.988Z,17.1
2017-12-02T15:42:44.839Z,17.2
2017-12-02T15:43:49.536Z,17.1
2017-12-02T15:44:53.201Z,17.1
2017-12-02T15:45:55.922Z,17.1
2017-12-02T15:47:06.003Z,17
2017-12-02T15:48:11.282Z,17.1
2017-12-02T15:49:14.269Z,17.1
2017-12-02T15:50:18.203Z,16.8
2017-12-02T15:51:26.508Z,17
2017-12-02T15:52:31.267Z,17
2017-12-02T15:53:34.240Z,16.9
2017-12-02T15:54:38.060Z,16.7
2017-12-02T15:55:41.870Z,16.6
2017-12-02T15:56:46.587Z,16.5
2017-12-02T15:57:49.498Z,16.4
2017-12-02T15:58:52.340Z,16.2
2017-12-02T15:59:55.424Z,16.3
2017-12-02T16:00:59.633Z,16.3
2017-12-02T16:02:10.012Z,16.3
2017-12-02T16:03:13.807Z,16.3
2017-12-02T16:04:16.599Z,16.3
2017-12-02T16:05:20.715Z,16.3
2017-12-02T16:06:24.237Z,16.2
2017-12-02T16:07:28.449Z,16.2
2017-12-02T16:08:31.324Z,16.1
2017-12-02T16:09:35.773Z,16.1
2017-12-02T16:10:38.989Z,16.1
2017-12-02T16:11:47.220Z,16.1
2017-12-02T16:12:51.413Z,16
2017-12-02T16:13:55.283Z,15.9
2017-12-02T16:14:58.689Z,16.1
2017-12-02T16:16:03.385Z,16.5
2017-12-02T16:17:09.127Z,17
2017-12-02T16:18:12.174Z,17.4
2017-12-02T16:19:14.984Z,17.7
2017-12-02T16:20:18.793Z,18
2017-12-02T16:21:23.022Z,18.3
2017-12-02T16:22:31.136Z,18.5
2017-12-02T16:23:39.156Z,18.5
2017-12-02T16:24:43.043Z,18.6
2017-12-02T16:25:46.112Z,18.7
2017-12-02T16:26:51.845Z,18.8
2017-12-02T16:27:54.905Z,18.9
2017-12-02T16:28:58.074Z,18.9
2017-12-02T16:31:16.456Z,19.1
2017-12-02T16:32:20.569Z,19.2
2017-12-02T16:33:23.919Z,19.4
2017-12-02T16:34:27.032Z,19.5
2017-12-02T16:35:31.683Z,19.5
2017-12-02T16:36:34.687Z,19.7
2017-12-02T16:37:42.401Z,19.7
2017-12-02T16:38:45.742Z,19.7
2017-12-02T16:39:49.914Z,19.7
2017-12-02T16:40:52.800Z,19.6
2017-12-02T16:41:55.445Z,19.6
2017-12-02T16:42:58.900Z,19.6
2017-12-02T16:44:01.589Z,19.5
2017-12-02T16:46:19.136Z,19.4
2017-12-02T16:47:22.290Z,19.4
2017-12-02T16:48:25.420Z,19.4
2017-12-02T16:49:29.395Z,19.3
2017-12-02T16:50:35.897Z,19.3
2017-12-02T16:51:42.641Z,19.3
2017-12-02T16:52:45.628Z,19.3
2017-12-02T16:53:48.415Z,19.3
2017-12-02T16:54:51.700Z,19.3
2017-12-02T16:55:54.782Z,19.2
2017-12-02T16:56:58.519Z,19.3
2017-12-02T16:59:09.917Z,19.1
2017-12-02T17:00:19.417Z,19.1
2017-12-02T17:01:25.457Z,19
2017-12-02T17:02:30.765Z,19.1
2017-12-02T17:03:34.949Z,19
2017-12-02T17:04:38.850Z,19
2017-12-02T17:05:45.682Z,19
2017-12-02T17:06:52.392Z,18.9
2017-12-02T17:07:55.797Z,18.9
2017-12-02T17:08:59.355Z,18.8
2017-12-02T17:11:18.218Z,18.8
2017-12-02T17:12:22.669Z,18.7
2017-12-02T17:13:26.479Z,18.7
2017-12-02T17:14:30.726Z,18.6
2017-12-02T17:15:35.549Z,18.7
2017-12-02T17:16:45.030Z,18.6
2017-12-02T17:17:48.818Z,18.6
2017-12-02T17:18:55.375Z,18.5
2017-12-02T17:19:59.584Z,18.4
2017-12-02T17:21:06.145Z,18.4
2017-12-02T17:22:16.105Z,18.4
2017-12-02T17:23:24.837Z,18.3
2017-12-02T17:24:29.652Z,18.4
2017-12-02T17:25:35.543Z,18.4
2017-12-02T17:27:51.487Z,18.3
2017-12-02T17:28:57.340Z,18.1
2017-12-02T17:31:33.122Z,18
2017-12-02T17:32:37.332Z,18
2017-12-02T17:33:42.150Z,18.1
2017-12-02T17:34:46.672Z,18
2017-12-02T17:35:51.395Z,18
2017-12-02T17:36:57.458Z,18.1
2017-12-02T17:38:03.771Z,18.1
2017-12-02T17:39:11.083Z,18.1
2017-12-02T17:41:24.146Z,18.1
2017-12-02T17:42:27.129Z,17.9
2017-12-02T17:43:30.122Z,18
2017-12-02T17:44:32.918Z,18
2017-12-02T17:45:36.552Z,18
2017-12-02T17:46:40.227Z,18
2017-12-02T17:47:42.888Z,18
2017-12-02T17:48:45.544Z,18
2017-12-02T17:49:51.295Z,18
2017-12-02T17:50:56.928Z,17.8
2017-12-02T17:53:16.801Z,17.9
2017-12-02T17:54:22.879Z,17.9
2017-12-02T17:55:26.673Z,17.9
2017-12-02T17:56:35.278Z,17.9
2017-12-02T17:57:39.627Z,17.8
2017-12-02T17:58:42.177Z,17.9
2017-12-02T17:59:44.798Z,17.8
2017-12-02T18:00:49.536Z,17.9
2017-12-02T18:01:54.025Z,18
2017-12-02T18:03:03.752Z,18
2017-12-02T18:04:06.884Z,17.8
2017-12-02T18:05:14.768Z,18
2017-12-02T18:06:22.698Z,18.2
2017-12-02T18:07:25.364Z,18.4
2017-12-02T18:08:28.388Z,18.7
2017-12-02T18:09:31.095Z,18.8
2017-12-02T18:10:33.739Z,18.9
2017-12-02T18:11:43.769Z,18.9
2017-12-02T18:12:48.057Z,19.2
2017-12-02T18:13:52.862Z,19.3
2017-12-02T18:14:55.816Z,19.5
2017-12-02T18:15:59.064Z,19.4
2017-12-02T18:17:03.334Z,19.4
2017-12-02T18:19:15.377Z,19.5
2017-12-02T18:20:20.288Z,19.6
2017-12-02T18:21:25.759Z,19.7
2017-12-02T18:22:28.535Z,19.9
2017-12-02T18:23:33.009Z,20
2017-12-02T18:24:42.782Z,19.8
2017-12-02T18:25:47.397Z,19.9
2017-12-02T18:26:50.877Z,19.9
2017-12-02T18:27:53.644Z,19.8
2017-12-02T18:28:56.488Z,19.9
2017-12-02T18:29:59.384Z,20
2017-12-02T18:31:02.291Z,20
2017-12-02T18:32:16.961Z,20
2017-12-02T18:33:19.757Z,20.2
2017-12-02T18:34:22.269Z,20.3
2017-12-02T18:35:24.867Z,20.3
2017-12-02T18:37:36.356Z,20.4
2017-12-02T18:38:39.872Z,20.3
2017-12-02T18:39:42.474Z,20.4
2017-12-02T18:40:45.617Z,20.5
2017-12-02T18:41:48.917Z,20.5
2017-12-02T18:42:51.465Z,20.5
2017-12-02T18:43:54.093Z,20.6
2017-12-02T18:44:56.681Z,20.6
2017-12-02T18:45:59.239Z,20.4
2017-12-02T18:47:01.749Z,20.4
2017-12-02T18:48:04.330Z,20.4
2017-12-02T18:49:07.067Z,20.3
2017-12-02T18:50:13.979Z,20.3
2017-12-02T18:51:17.359Z,20.2
2017-12-02T18:52:20.126Z,20.1
2017-12-02T18:53:22.753Z,20.1
2017-12-02T18:54:27.738Z,20
2017-12-02T18:56:45.621Z,19.9
2017-12-02T18:57:48.121Z,19.8
2017-12-02T18:58:50.827Z,19.9
2017-12-02T18:59:53.415Z,19.7
2017-12-02T19:00:56.034Z,19.8
2017-12-02T19:01:58.990Z,19.8
2017-12-02T19:03:01.966Z,19.7
2017-12-02T19:04:05.713Z,19.6
2017-12-02T19:05:12.919Z,19.7
2017-12-02T19:06:15.503Z,19.6
2017-12-02T19:07:18.252Z,19.6
2017-12-02T19:08:20.968Z,19.7
2017-12-02T19:09:23.712Z,19.6
2017-12-02T19:10:27.024Z,19.6
2017-12-02T19:11:43.991Z,19.5
2017-12-02T19:12:47.279Z,19.5
2017-12-02T19:13:49.906Z,19.5
2017-12-02T19:14:52.366Z,19.4
2017-12-02T19:15:54.996Z,19.4
2017-12-02T19:16:57.688Z,19.4
2017-12-02T19:18:00.225Z,19.4
2017-12-02T19:19:04.782Z,19.2
2017-12-02T19:21:19.701Z,19.2
2017-12-02T19:22:23.613Z,19.2
2017-12-02T19:23:26.377Z,19.2
2017-12-02T19:24:31.695Z,19.2
2017-12-02T19:25:34.494Z,19.1
2017-12-02T19:26:37.339Z,19.1
2017-12-02T19:27:40.140Z,19.2
2017-12-02T19:28:42.978Z,19.1
2017-12-02T19:29:45.529Z,19.2
2017-12-02T19:30:48.345Z,19.2
2017-12-02T19:31:53.071Z,19.1
2017-12-02T19:32:55.682Z,18.9
2017-12-02T19:33:58.361Z,18.9
2017-12-02T19:36:19.958Z,18.7
2017-12-02T19:37:22.517Z,18.7
2017-12-02T19:38:25.211Z,18.7
2017-12-02T19:39:27.838Z,18.8
2017-12-02T19:40:32.120Z,18.7
2017-12-02T19:41:40.835Z,18.8
2017-12-02T19:42:43.435Z,18.8
2017-12-02T19:43:46.030Z,18.6
2017-12-02T19:44:52.679Z,18.7
2017-12-02T19:45:57.428Z,18.6
2017-12-02T19:47:00.324Z,18.6
2017-12-02T19:48:03.164Z,18.6
2017-12-02T19:49:06.548Z,18.5
2017-12-02T19:50:15.042Z,18.5
2017-12-02T19:51:18.820Z,18.4
2017-12-02T19:52:28.931Z,18.5
2017-12-02T19:53:37.086Z,18.5
2017-12-02T19:54:41.735Z,18.4
2017-12-02T19:55:44.346Z,18.4
2017-12-02T19:56:46.899Z,18.5
2017-12-02T19:57:49.405Z,18.4
2017-12-02T19:58:51.929Z,18.3
2017-12-02T19:59:54.397Z,18.3
2017-12-02T20:00:57.120Z,18.2
2017-12-02T20:02:01.082Z,18.4
2017-12-02T20:03:07.032Z,18.3
2017-12-02T20:04:09.926Z,18.5
2017-12-02T20:05:14.012Z,18.6
2017-12-02T20:07:27.871Z,19
2017-12-02T20:08:31.326Z,19
2017-12-02T20:09:34.006Z,19
2017-12-02T20:10:37.762Z,19.2
2017-12-02T20:11:40.628Z,19.4
2017-12-02T20:12:43.229Z,19.4
2017-12-02T20:13:45.944Z,19.5
2017-12-02T20:14:48.435Z,19.7
2017-12-02T20:15:51.285Z,19.8
2017-12-02T20:16:54.630Z,20
2017-12-02T20:17:57.336Z,20.1
2017-12-02T20:18:59.918Z,20.1
2017-12-02T20:21:20.055Z,20.1
2017-12-02T20:22:23.323Z,20.1
2017-12-02T20:23:26.654Z,20.2
2017-12-02T20:24:31.156Z,20.1
2017-12-02T20:25:34.035Z,20.3
2017-12-02T20:26:37.212Z,20.4
2017-12-02T20:27:40.968Z,20.5
2017-12-02T20:28:44.790Z,20.6
2017-12-02T20:29:48.308Z,20.6
2017-12-02T20:30:52.738Z,20.6
2017-12-02T20:31:55.413Z,20.6
2017-12-02T20:33:05.291Z,20.5
2017-12-02T20:34:09.517Z,20.5
2017-12-02T20:35:14.954Z,20.5
2017-12-02T20:36:17.520Z,20.4
2017-12-02T20:37:20.595Z,20.3
2017-12-02T20:38:23.219Z,20.3
2017-12-02T20:39:25.748Z,20.2
2017-12-02T20:40:30.391Z,20.1
2017-12-02T20:41:33.082Z,20.1
2017-12-02T20:42:35.741Z,20.1
2017-12-02T20:43:38.521Z,20
2017-12-02T20:44:41.159Z,19.9
2017-12-02T20:45:44.174Z,19.9
2017-12-02T20:46:46.974Z,19.8
2017-12-02T20:47:49.642Z,19.9
2017-12-02T20:48:52.048Z,19.8
2017-12-02T20:49:54.878Z,19.9
2017-12-02T20:50:57.604Z,19.7
2017-12-02T20:52:00.274Z,19.7
2017-12-02T20:53:04.244Z,19.6
2017-12-02T20:54:07.204Z,19.7
2017-12-02T20:55:11.309Z,19.7
2017-12-02T20:56:17.383Z,19.7
2017-12-02T20:57:20.552Z,19.6
2017-12-02T20:58:23.442Z,19.6
2017-12-02T20:59:28.782Z,19.6
2017-12-02T21:00:34.072Z,19.4
2017-12-02T21:01:38.596Z,19.3
2017-12-02T21:02:41.513Z,19.5
2017-12-02T21:03:44.051Z,19.4
2017-12-02T21:04:46.677Z,19.4
2017-12-02T21:05:50.416Z,19.5
2017-12-02T21:06:53.899Z,19.5
2017-12-02T21:07:58.562Z,19.5
2017-12-02T21:09:01.339Z,19.4
2017-12-02T21:10:11.546Z,19.5
2017-12-02T21:11:19.676Z,19.4
2017-12-02T21:12:26.468Z,19.3
2017-12-02T21:13:29.418Z,19.4
2017-12-02T21:14:32.170Z,19.3
2017-12-02T21:15:34.871Z,19.4
2017-12-02T21:16:37.654Z,19.3
2017-12-02T21:17:40.592Z,19.1
2017-12-02T21:18:43.289Z,19.1
2017-12-02T21:19:45.882Z,19
2017-12-02T21:20:48.679Z,18.9
2017-12-02T21:21:52.632Z,19
2017-12-02T21:22:56.847Z,18.9
2017-12-02T21:24:01.090Z,18.8
2017-12-02T21:25:14.060Z,18.6
2017-12-02T21:26:16.866Z,18.6
2017-12-02T21:27:20.532Z,18.7
2017-12-02T21:28:23.301Z,18.6
2017-12-02T21:29:25.899Z,18.6
2017-12-02T21:30:32.107Z,18.6
2017-12-02T21:31:39.227Z,18.5
2017-12-02T21:32:43.107Z,18.6
2017-12-02T21:33:46.570Z,18.7
2017-12-02T21:34:49.444Z,18.6
2017-12-02T21:35:52.798Z,18.6
2017-12-02T21:36:55.687Z,18.5
2017-12-02T21:37:58.348Z,18.5
2017-12-02T21:39:01.279Z,18.5
2017-12-02T21:40:10.195Z,18.5
2017-12-02T21:41:15.734Z,18.5
2017-12-02T21:42:18.670Z,18.5
2017-12-02T21:43:21.503Z,18.4
2017-12-02T21:44:24.185Z,18.4
2017-12-02T21:45:27.028Z,18.4
2017-12-02T21:46:30.718Z,18.4
2017-12-02T21:47:34.108Z,18.4
2017-12-02T21:48:37.403Z,18.4
2017-12-02T21:49:40.426Z,18.3
2017-12-02T21:50:43.680Z,18.3
2017-12-02T21:51:46.305Z,18.3
2017-12-02T21:52:48.924Z,18.2
2017-12-02T21:53:51.481Z,18.1
2017-12-02T21:54:53.988Z,18.1
2017-12-02T21:55:56.600Z,18
2017-12-02T21:56:59.243Z,18.1
2017-12-02T21:58:01.785Z,18.1
2017-12-02T21:59:06.670Z,18
2017-12-02T22:00:13.035Z,18
2017-12-02T22:01:19.913Z,18.1
2017-12-02T22:02:22.581Z,18.1
2017-12-02T22:03:25.899Z,18
2017-12-02T22:04:29.961Z,18
2017-12-02T22:05:32.699Z,18
2017-12-02T22:06:35.588Z,17.9
2017-12-02T22:07:38.476Z,17.9
2017-12-02T22:08:41.214Z,18
2017-12-02T22:09:43.859Z,18
2017-12-02T22:10:47.207Z,17.9
2017-12-02T22:11:50.221Z,17.9
2017-12-02T22:12:52.797Z,17.8
2017-12-02T22:13:55.290Z,17.8
2017-12-02T22:14:57.677Z,17.8
2017-12-02T22:16:00.344Z,17.9
2017-12-02T22:17:03.118Z,17.9
2017-12-02T22:18:06.192Z,17.8
2017-12-02T22:19:09.126Z,17.9
2017-12-02T22:20:15.462Z,17.8
2017-12-02T22:21:18.490Z,17.8
2017-12-02T22:22:21.198Z,17.8
2017-12-02T22:23:24.540Z,17.7
2017-12-02T22:24:29.710Z,17.6
2017-12-02T22:25:32.684Z,17.7
2017-12-02T22:26:36.423Z,17.7
2017-12-02T22:27:39.182Z,17.7
2017-12-02T22:28:41.977Z,17.7
2017-12-02T22:29:44.603Z,17.7
2017-12-02T22:30:47.356Z,17.6
2017-12-02T22:31:50.499Z,17.6
2017-12-02T22:32:53.141Z,17.4
2017-12-02T22:33:55.750Z,17.6
2017-12-02T22:34:58.677Z,17.6
2017-12-02T22:36:03.570Z,17.6
2017-12-02T22:37:08.265Z,17.7
2017-12-02T22:38:11.104Z,17.6
2017-12-02T22:39:16.840Z,17.6
2017-12-02T22:40:21.109Z,17.6
2017-12-02T22:41:25.009Z,17.7
2017-12-02T22:42:29.641Z,17.6
2017-12-02T22:43:32.816Z,17.6
2017-12-02T22:44:35.628Z,17.6
2017-12-02T22:45:40.152Z,17.6
2017-12-02T22:46:42.975Z,17.6
2017-12-02T22:47:45.945Z,17.6
2017-12-02T22:48:49.434Z,17.6
2017-12-02T22:49:51.994Z,17.7
2017-12-02T22:50:54.795Z,17.6
2017-12-02T22:51:57.624Z,17.6
2017-12-02T22:53:00.909Z,17.5
2017-12-02T22:54:03.509Z,17.6
2017-12-02T22:55:12.465Z,17.6
2017-12-02T22:56:15.978Z,17.5
2017-12-02T22:57:18.647Z,17.6
2017-12-02T22:58:21.541Z,17.5
2017-12-02T22:59:24.570Z,17.5
2017-12-02T23:00:29.485Z,17.5
2017-12-02T23:01:40.663Z,17.6
2017-12-02T23:02:43.960Z,17.3
2017-12-02T23:03:47.607Z,17.4
2017-12-02T23:04:50.063Z,17.5
2017-12-02T23:05:52.710Z,17.4
2017-12-02T23:06:56.278Z,17.5
2017-12-02T23:07:58.829Z,17.4
2017-12-02T23:10:26.244Z,17.4
2017-12-02T23:11:30.327Z,17.3
2017-12-02T23:12:33.781Z,17.3
2017-12-02T23:13:36.787Z,17.3
2017-12-02T23:14:40.387Z,17.3
2017-12-02T23:15:42.841Z,17.3
2017-12-02T23:16:46.024Z,17.3
2017-12-02T23:17:48.528Z,17.4
2017-12-02T23:18:53.406Z,17.4
2017-12-02T23:19:57.863Z,17.3
2017-12-02T23:21:02.167Z,17.4
2017-12-02T23:22:09.772Z,17.3
2017-12-02T23:23:14.062Z,17.4
2017-12-02T23:24:16.755Z,17.4
2017-12-02T23:25:20.965Z,15.7
2017-12-02T23:26:28.852Z,11.5
2017-12-02T23:27:37.994Z,10.2
2017-12-02T23:28:46.858Z,9.5
2017-12-02T23:29:52.964Z,9.2
2017-12-02T23:32:13.513Z,8.6
2017-12-02T23:33:24.371Z,8.8
2017-12-02T23:34:28.745Z,8.6
2017-12-02T23:35:32.013Z,8.3
2017-12-02T23:36:35.253Z,8.2
2017-12-02T23:37:37.865Z,8.1
2017-12-02T23:38:41.506Z,8.1
2017-12-02T23:39:43.928Z,7.8
2017-12-02T23:40:46.492Z,7.9
2017-12-02T23:41:49.240Z,7.9
2017-12-02T23:42:51.771Z,7.7
2017-12-02T23:43:54.134Z,7.5
2017-12-02T23:44:56.524Z,8
2017-12-02T23:45:58.918Z,7.8
2017-12-02T23:47:01.531Z,7.5
2017-12-02T23:48:04.640Z,7.4
2017-12-02T23:49:07.132Z,7.4
2017-12-02T23:50:12.257Z,7.3
2017-12-02T23:51:15.877Z,7.2
2017-12-02T23:52:18.461Z,7.1
2017-12-02T23:53:21.699Z,7.1
2017-12-02T23:54:24.456Z,7.2
2017-12-02T23:55:27.036Z,7.1
2017-12-02T23:56:30.009Z,7.1
2017-12-02T23:57:33.406Z,6.7
2017-12-02T23:58:36.623Z,6.9
2017-12-02T23:59:39.832Z,7.1
